sensor_id;sensor_type;location;lat;lon;timestamp;temperature;humidity
50013;DHT22;35901;48.694;9.476;2023-07-31T00:00:49;11.30;99.90
50013;DHT22;35901;48.694;9.476;2023-07-31T00:03:15;11.40;99.90
50013;DHT22;35901;48.694;9.476;2023-07-31T00:05:41;11.40;99.90
50013;DHT22;35901;48.694;9.476;2023-07-31T00:08:06;11.50;99.90
50013;DHT22;35901;48.694;9.476;2023-07-31T00:10:32;11.40;99.90
50013;DHT22;35901;48.694;9.476;2023-07-31T00:12:59;11.40;99.90
50013;DHT22;35901;48.694;9.476;2023-07-31T00:15:24;11.40;99.90
50013;DHT22;35901;48.694;9.476;2023-07-31T00:17:50;11.40;99.90
50013;DHT22;35901;48.694;9.476;2023-07-31T00:20:16;11.30;99.90
50013;DHT22;35901;48.694;9.476;2023-07-31T00:22:41;11.20;99.90
50013;DHT22;35901;48.694;9.476;2023-07-31T00:25:07;11.00;99.90
50013;DHT22;35901;48.694;9.476;2023-07-31T00:27:33;11.00;99.90
50013;DHT22;35901;48.694;9.476;2023-07-31T00:29:59;10.90;99.90
50013;DHT22;35901;48.694;9.476;2023-07-31T00:32:25;10.80;99.90
50013;DHT22;35901;48.694;9.476;2023-07-31T00:34:50;10.80;99.90
50013;DHT22;35901;48.694;9.476;2023-07-31T00:37:16;10.70;99.90
50013;DHT22;35901;48.694;9.476;2023-07-31T00:39:42;10.70;99.90
50013;DHT22;35901;48.694;9.476;2023-07-31T00:42:08;10.60;99.90
50013;DHT22;35901;48.694;9.476;2023-07-31T00:44:33;10.60;99.90
50013;DHT22;35901;48.694;9.476;2023-07-31T00:46:59;10.50;99.90
50013;DHT22;35901;48.694;9.476;2023-07-31T00:49:26;10.50;99.90
50013;DHT22;35901;48.694;9.476;2023-07-31T00:51:52;10.40;99.90
50013;DHT22;35901;48.694;9.476;2023-07-31T00:54:19;10.50;99.90
50013;DHT22;35901;48.694;9.476;2023-07-31T00:56:46;10.50;99.90
50013;DHT22;35901;48.694;9.476;2023-07-31T00:59:14;10.50;99.90
50013;DHT22;35901;48.694;9.476;2023-07-31T01:01:40;10.40;99.90
50013;DHT22;35901;48.694;9.476;2023-07-31T01:04:06;10.40;99.90
50013;DHT22;35901;48.694;9.476;2023-07-31T01:09:45;10.50;99.90
50013;DHT22;35901;48.694;9.476;2023-07-31T01:12:14;10.40;99.90
50013;DHT22;35901;48.694;9.476;2023-07-31T01:14:40;10.30;99.90
50013;DHT22;35901;48.694;9.476;2023-07-31T01:17:06;10.20;99.90
50013;DHT22;35901;48.694;9.476;2023-07-31T01:19:32;10.10;99.90
50013;DHT22;35901;48.694;9.476;2023-07-31T01:25:00;10.10;99.90
50013;DHT22;35901;48.694;9.476;2023-07-31T01:27:39;10.00;99.90
50013;DHT22;35901;48.694;9.476;2023-07-31T01:30:11;10.00;99.90
50013;DHT22;35901;48.694;9.476;2023-07-31T01:32:43;10.00;99.90
50013;DHT22;35901;48.694;9.476;2023-07-31T01:35:09;10.20;99.90
50013;DHT22;35901;48.694;9.476;2023-07-31T01:37:35;10.40;99.90
50013;DHT22;35901;48.694;9.476;2023-07-31T01:40:01;10.50;99.90
50013;DHT22;35901;48.694;9.476;2023-07-31T01:42:27;10.30;99.90
50013;DHT22;35901;48.694;9.476;2023-07-31T01:44:52;10.10;99.90
50013;DHT22;35901;48.694;9.476;2023-07-31T01:47:19;10.00;99.90
50013;DHT22;35901;48.694;9.476;2023-07-31T01:49:44;9.90;99.90
50013;DHT22;35901;48.694;9.476;2023-07-31T01:52:10;9.90;99.90
50013;DHT22;35901;48.694;9.476;2023-07-31T01:54:36;9.80;99.90
50013;DHT22;35901;48.694;9.476;2023-07-31T01:57:02;9.80;99.90
50013;DHT22;35901;48.694;9.476;2023-07-31T01:59:28;9.70;99.90
50013;DHT22;35901;48.694;9.476;2023-07-31T02:01:54;9.70;99.90
50013;DHT22;35901;48.694;9.476;2023-07-31T02:04:20;9.70;99.90
50013;DHT22;35901;48.694;9.476;2023-07-31T02:06:45;9.70;99.90
50013;DHT22;35901;48.694;9.476;2023-07-31T02:09:11;9.70;99.90
50013;DHT22;35901;48.694;9.476;2023-07-31T02:11:37;9.70;99.90
50013;DHT22;35901;48.694;9.476;2023-07-31T02:14:03;9.80;99.90
50013;DHT22;35901;48.694;9.476;2023-07-31T02:16:28;9.80;99.90
50013;DHT22;35901;48.694;9.476;2023-07-31T02:18:54;9.80;99.90
50013;DHT22;35901;48.694;9.476;2023-07-31T02:21:20;9.80;99.90
50013;DHT22;35901;48.694;9.476;2023-07-31T02:23:45;9.90;99.90
50013;DHT22;35901;48.694;9.476;2023-07-31T02:26:11;9.90;99.90
50013;DHT22;35901;48.694;9.476;2023-07-31T02:28:37;9.90;99.90
50013;DHT22;35901;48.694;9.476;2023-07-31T02:31:03;9.90;99.90
50013;DHT22;35901;48.694;9.476;2023-07-31T02:33:29;9.90;99.90
50013;DHT22;35901;48.694;9.476;2023-07-31T02:35:54;9.90;99.90
50013;DHT22;35901;48.694;9.476;2023-07-31T02:38:21;9.80;99.90
50013;DHT22;35901;48.694;9.476;2023-07-31T02:40:47;9.80;99.90
50013;DHT22;35901;48.694;9.476;2023-07-31T02:43:13;9.70;99.90
50013;DHT22;35901;48.694;9.476;2023-07-31T02:45:39;9.70;99.90
50013;DHT22;35901;48.694;9.476;2023-07-31T02:48:05;9.70;99.90
50013;DHT22;35901;48.694;9.476;2023-07-31T02:50:31;9.60;99.90
50013;DHT22;35901;48.694;9.476;2023-07-31T02:52:57;9.50;99.90
50013;DHT22;35901;48.694;9.476;2023-07-31T02:55:23;9.50;99.90
50013;DHT22;35901;48.694;9.476;2023-07-31T02:57:48;9.60;99.90
50013;DHT22;35901;48.694;9.476;2023-07-31T03:00:14;9.50;99.90
50013;DHT22;35901;48.694;9.476;2023-07-31T03:02:40;9.40;99.90
50013;DHT22;35901;48.694;9.476;2023-07-31T03:05:06;9.40;99.90
50013;DHT22;35901;48.694;9.476;2023-07-31T03:07:32;9.40;99.90
50013;DHT22;35901;48.694;9.476;2023-07-31T03:09:57;9.30;99.90
50013;DHT22;35901;48.694;9.476;2023-07-31T03:12:23;9.30;99.90
50013;DHT22;35901;48.694;9.476;2023-07-31T03:14:49;9.30;99.90
50013;DHT22;35901;48.694;9.476;2023-07-31T03:17:15;9.30;99.90
50013;DHT22;35901;48.694;9.476;2023-07-31T03:19:40;9.30;99.90
50013;DHT22;35901;48.694;9.476;2023-07-31T03:22:06;9.40;99.90
50013;DHT22;35901;48.694;9.476;2023-07-31T03:24:32;9.40;99.90
50013;DHT22;35901;48.694;9.476;2023-07-31T03:26:57;9.40;99.90
50013;DHT22;35901;48.694;9.476;2023-07-31T03:29:23;9.50;99.90
50013;DHT22;35901;48.694;9.476;2023-07-31T03:31:49;9.50;99.90
50013;DHT22;35901;48.694;9.476;2023-07-31T03:34:15;9.60;99.90
50013;DHT22;35901;48.694;9.476;2023-07-31T03:36:40;9.50;99.90
50013;DHT22;35901;48.694;9.476;2023-07-31T03:39:06;9.50;99.90
50013;DHT22;35901;48.694;9.476;2023-07-31T03:41:32;9.40;99.90
50013;DHT22;35901;48.694;9.476;2023-07-31T03:43:58;9.40;99.90
50013;DHT22;35901;48.694;9.476;2023-07-31T03:46:24;9.20;99.90
50013;DHT22;35901;48.694;9.476;2023-07-31T03:48:50;9.20;99.90
50013;DHT22;35901;48.694;9.476;2023-07-31T03:51:17;9.20;99.90
50013;DHT22;35901;48.694;9.476;2023-07-31T03:53:43;9.20;99.90
50013;DHT22;35901;48.694;9.476;2023-07-31T03:56:09;9.20;99.90
50013;DHT22;35901;48.694;9.476;2023-07-31T03:58:35;9.10;99.90
50013;DHT22;35901;48.694;9.476;2023-07-31T04:01:02;9.10;99.90
50013;DHT22;35901;48.694;9.476;2023-07-31T04:03:28;9.10;99.90
50013;DHT22;35901;48.694;9.476;2023-07-31T04:05:55;9.10;99.90
50013;DHT22;35901;48.694;9.476;2023-07-31T04:08:23;9.10;99.90
50013;DHT22;35901;48.694;9.476;2023-07-31T04:10:49;9.10;99.90
50013;DHT22;35901;48.694;9.476;2023-07-31T04:13:15;9.20;99.90
50013;DHT22;35901;48.694;9.476;2023-07-31T04:15:41;9.20;99.90
50013;DHT22;35901;48.694;9.476;2023-07-31T04:18:07;9.20;99.90
50013;DHT22;35901;48.694;9.476;2023-07-31T04:20:33;9.30;99.90
50013;DHT22;35901;48.694;9.476;2023-07-31T04:22:58;9.40;99.90
50013;DHT22;35901;48.694;9.476;2023-07-31T04:25:24;9.50;99.90
50013;DHT22;35901;48.694;9.476;2023-07-31T04:27:50;9.60;99.90
50013;DHT22;35901;48.694;9.476;2023-07-31T04:30:15;9.70;99.90
50013;DHT22;35901;48.694;9.476;2023-07-31T04:32:41;9.80;99.90
50013;DHT22;35901;48.694;9.476;2023-07-31T04:35:07;9.90;99.90
50013;DHT22;35901;48.694;9.476;2023-07-31T04:37:33;10.00;99.90
50013;DHT22;35901;48.694;9.476;2023-07-31T04:39:58;10.10;99.90
50013;DHT22;35901;48.694;9.476;2023-07-31T04:42:24;10.10;99.90
50013;DHT22;35901;48.694;9.476;2023-07-31T04:44:50;10.10;99.90
50013;DHT22;35901;48.694;9.476;2023-07-31T04:47:16;10.10;99.90
50013;DHT22;35901;48.694;9.476;2023-07-31T04:49:42;10.20;99.90
50013;DHT22;35901;48.694;9.476;2023-07-31T04:52:07;10.20;99.90
50013;DHT22;35901;48.694;9.476;2023-07-31T04:54:33;10.40;99.90
50013;DHT22;35901;48.694;9.476;2023-07-31T04:56:58;10.70;99.90
50013;DHT22;35901;48.694;9.476;2023-07-31T04:59:24;11.00;99.90
50013;DHT22;35901;48.694;9.476;2023-07-31T05:01:50;11.20;99.90
50013;DHT22;35901;48.694;9.476;2023-07-31T05:04:15;11.30;99.90
50013;DHT22;35901;48.694;9.476;2023-07-31T05:06:41;11.30;99.90
50013;DHT22;35901;48.694;9.476;2023-07-31T05:09:07;11.30;99.90
50013;DHT22;35901;48.694;9.476;2023-07-31T05:11:34;11.30;99.90
50013;DHT22;35901;48.694;9.476;2023-07-31T05:14:00;11.30;99.90
50013;DHT22;35901;48.694;9.476;2023-07-31T05:16:26;11.30;99.90
50013;DHT22;35901;48.694;9.476;2023-07-31T05:18:52;11.30;99.90
50013;DHT22;35901;48.694;9.476;2023-07-31T05:21:17;11.30;99.90
50013;DHT22;35901;48.694;9.476;2023-07-31T05:23:43;11.30;99.90
50013;DHT22;35901;48.694;9.476;2023-07-31T05:26:08;11.30;99.90
50013;DHT22;35901;48.694;9.476;2023-07-31T05:28:37;11.40;99.90
50013;DHT22;35901;48.694;9.476;2023-07-31T05:31:04;11.40;99.90
50013;DHT22;35901;48.694;9.476;2023-07-31T05:33:30;11.50;99.90
50013;DHT22;35901;48.694;9.476;2023-07-31T05:35:56;11.60;99.90
50013;DHT22;35901;48.694;9.476;2023-07-31T05:38:22;11.60;99.90
50013;DHT22;35901;48.694;9.476;2023-07-31T05:40:48;11.60;99.90
50013;DHT22;35901;48.694;9.476;2023-07-31T05:43:14;11.60;99.90
50013;DHT22;35901;48.694;9.476;2023-07-31T05:45:41;11.70;99.90
50013;DHT22;35901;48.694;9.476;2023-07-31T05:48:07;11.80;99.90
50013;DHT22;35901;48.694;9.476;2023-07-31T05:50:33;11.90;99.90
50013;DHT22;35901;48.694;9.476;2023-07-31T05:52:58;12.00;99.90
50013;DHT22;35901;48.694;9.476;2023-07-31T05:55:24;12.20;99.90
50013;DHT22;35901;48.694;9.476;2023-07-31T05:57:54;12.30;99.90
50013;DHT22;35901;48.694;9.476;2023-07-31T06:00:20;12.40;99.90
50013;DHT22;35901;48.694;9.476;2023-07-31T06:02:48;12.50;99.90
50013;DHT22;35901;48.694;9.476;2023-07-31T06:05:14;12.90;99.90
50013;DHT22;35901;48.694;9.476;2023-07-31T06:07:41;13.60;99.90
50013;DHT22;35901;48.694;9.476;2023-07-31T06:10:07;14.40;99.90
50013;DHT22;35901;48.694;9.476;2023-07-31T06:12:34;15.40;99.90
50013;DHT22;35901;48.694;9.476;2023-07-31T06:15:01;16.50;99.90
50013;DHT22;35901;48.694;9.476;2023-07-31T06:17:27;17.10;99.90
50013;DHT22;35901;48.694;9.476;2023-07-31T06:19:53;17.20;99.90
50013;DHT22;35901;48.694;9.476;2023-07-31T06:22:19;16.90;99.90
50013;DHT22;35901;48.694;9.476;2023-07-31T06:24:45;16.70;99.90
50013;DHT22;35901;48.694;9.476;2023-07-31T06:27:11;16.60;99.90
50013;DHT22;35901;48.694;9.476;2023-07-31T06:29:37;16.70;99.90
50013;DHT22;35901;48.694;9.476;2023-07-31T06:32:03;17.30;99.90
50013;DHT22;35901;48.694;9.476;2023-07-31T06:34:29;17.60;99.90
50013;DHT22;35901;48.694;9.476;2023-07-31T06:36:58;17.60;99.90
50013;DHT22;35901;48.694;9.476;2023-07-31T06:39:24;17.80;99.90
50013;DHT22;35901;48.694;9.476;2023-07-31T06:41:49;17.80;99.90
50013;DHT22;35901;48.694;9.476;2023-07-31T06:44:16;17.80;99.90
50013;DHT22;35901;48.694;9.476;2023-07-31T06:46:42;18.10;99.90
50013;DHT22;35901;48.694;9.476;2023-07-31T06:49:08;19.00;99.90
50013;DHT22;35901;48.694;9.476;2023-07-31T06:51:33;19.50;99.90
50013;DHT22;35901;48.694;9.476;2023-07-31T06:54:01;19.80;99.90
50013;DHT22;35901;48.694;9.476;2023-07-31T06:56:27;19.80;99.90
50013;DHT22;35901;48.694;9.476;2023-07-31T06:58:53;19.80;99.90
50013;DHT22;35901;48.694;9.476;2023-07-31T07:01:18;20.20;99.90
50013;DHT22;35901;48.694;9.476;2023-07-31T07:03:44;20.30;99.90
50013;DHT22;35901;48.694;9.476;2023-07-31T07:06:10;20.10;99.90
50013;DHT22;35901;48.694;9.476;2023-07-31T07:08:36;20.00;99.90
50013;DHT22;35901;48.694;9.476;2023-07-31T07:11:01;20.00;99.90
50013;DHT22;35901;48.694;9.476;2023-07-31T07:13:27;20.00;99.90
50013;DHT22;35901;48.694;9.476;2023-07-31T07:15:53;19.90;99.90
50013;DHT22;35901;48.694;9.476;2023-07-31T07:18:18;19.70;99.90
50013;DHT22;35901;48.694;9.476;2023-07-31T07:20:50;19.80;99.90
50013;DHT22;35901;48.694;9.476;2023-07-31T07:23:16;20.10;99.90
50013;DHT22;35901;48.694;9.476;2023-07-31T07:25:45;20.50;99.90
50013;DHT22;35901;48.694;9.476;2023-07-31T07:28:11;20.60;99.90
50013;DHT22;35901;48.694;9.476;2023-07-31T07:30:37;20.90;99.90
50013;DHT22;35901;48.694;9.476;2023-07-31T07:33:03;21.20;99.90
50013;DHT22;35901;48.694;9.476;2023-07-31T07:35:29;21.50;99.90
50013;DHT22;35901;48.694;9.476;2023-07-31T07:37:55;21.90;99.90
50013;DHT22;35901;48.694;9.476;2023-07-31T07:40:21;22.00;99.90
50013;DHT22;35901;48.694;9.476;2023-07-31T07:42:47;22.00;99.90
50013;DHT22;35901;48.694;9.476;2023-07-31T07:45:13;22.00;99.90
50013;DHT22;35901;48.694;9.476;2023-07-31T07:47:41;21.70;99.90
50013;DHT22;35901;48.694;9.476;2023-07-31T07:50:09;21.20;99.90
50013;DHT22;35901;48.694;9.476;2023-07-31T07:52:34;21.00;99.90
50013;DHT22;35901;48.694;9.476;2023-07-31T07:55:00;20.70;99.90
50013;DHT22;35901;48.694;9.476;2023-07-31T07:57:26;20.70;99.90
50013;DHT22;35901;48.694;9.476;2023-07-31T07:59:52;20.70;99.90
50013;DHT22;35901;48.694;9.476;2023-07-31T08:02:18;20.80;99.90
50013;DHT22;35901;48.694;9.476;2023-07-31T08:04:44;21.30;99.90
50013;DHT22;35901;48.694;9.476;2023-07-31T08:07:13;21.70;99.90
50013;DHT22;35901;48.694;9.476;2023-07-31T08:09:39;21.50;99.90
50013;DHT22;35901;48.694;9.476;2023-07-31T08:12:05;21.50;99.90
50013;DHT22;35901;48.694;9.476;2023-07-31T08:14:33;21.80;99.90
50013;DHT22;35901;48.694;9.476;2023-07-31T08:16:58;22.30;99.90
50013;DHT22;35901;48.694;9.476;2023-07-31T08:19:24;22.80;99.90
50013;DHT22;35901;48.694;9.476;2023-07-31T08:21:50;22.90;99.90
50013;DHT22;35901;48.694;9.476;2023-07-31T08:24:16;22.40;99.90
50013;DHT22;35901;48.694;9.476;2023-07-31T08:26:42;21.90;99.90
50013;DHT22;35901;48.694;9.476;2023-07-31T08:29:08;21.70;99.90
50013;DHT22;35901;48.694;9.476;2023-07-31T08:31:33;21.70;99.90
50013;DHT22;35901;48.694;9.476;2023-07-31T08:34:00;21.60;99.90
50013;DHT22;35901;48.694;9.476;2023-07-31T08:36:26;21.60;99.70
50013;DHT22;35901;48.694;9.476;2023-07-31T08:38:52;21.80;99.90
50013;DHT22;35901;48.694;9.476;2023-07-31T08:41:17;22.00;99.90
50013;DHT22;35901;48.694;9.476;2023-07-31T08:43:47;22.20;99.90
50013;DHT22;35901;48.694;9.476;2023-07-31T08:46:15;22.50;99.40
50013;DHT22;35901;48.694;9.476;2023-07-31T08:48:42;22.70;98.70
50013;DHT22;35901;48.694;9.476;2023-07-31T08:51:09;22.90;97.90
50013;DHT22;35901;48.694;9.476;2023-07-31T08:53:35;23.20;98.20
50013;DHT22;35901;48.694;9.476;2023-07-31T08:56:01;23.50;98.10
50013;DHT22;35901;48.694;9.476;2023-07-31T08:58:32;23.90;96.90
50013;DHT22;35901;48.694;9.476;2023-07-31T09:01:01;23.70;96.50
50013;DHT22;35901;48.694;9.476;2023-07-31T09:03:27;23.90;96.60
50013;DHT22;35901;48.694;9.476;2023-07-31T09:05:55;24.00;96.20
50013;DHT22;35901;48.694;9.476;2023-07-31T09:08:22;24.20;95.00
50013;DHT22;35901;48.694;9.476;2023-07-31T09:10:48;23.80;94.10
50013;DHT22;35901;48.694;9.476;2023-07-31T09:13:16;23.60;94.40
50013;DHT22;35901;48.694;9.476;2023-07-31T09:15:46;23.20;93.50
50013;DHT22;35901;48.694;9.476;2023-07-31T09:18:12;23.00;93.90
50013;DHT22;35901;48.694;9.476;2023-07-31T09:20:39;23.20;94.30
50013;DHT22;35901;48.694;9.476;2023-07-31T09:23:14;23.50;93.50
50013;DHT22;35901;48.694;9.476;2023-07-31T09:25:45;23.20;93.20
50013;DHT22;35901;48.694;9.476;2023-07-31T09:28:11;23.10;93.40
50013;DHT22;35901;48.694;9.476;2023-07-31T09:30:51;23.40;92.90
50013;DHT22;35901;48.694;9.476;2023-07-31T09:33:18;23.70;92.90
50013;DHT22;35901;48.694;9.476;2023-07-31T09:35:44;24.00;92.50
50013;DHT22;35901;48.694;9.476;2023-07-31T09:38:14;24.20;91.80
50013;DHT22;35901;48.694;9.476;2023-07-31T09:40:46;24.40;91.50
50013;DHT22;35901;48.694;9.476;2023-07-31T09:43:13;24.40;91.50
50013;DHT22;35901;48.694;9.476;2023-07-31T09:45:43;24.60;91.10
50013;DHT22;35901;48.694;9.476;2023-07-31T09:48:15;24.60;91.60
50013;DHT22;35901;48.694;9.476;2023-07-31T09:50:48;24.50;91.40
50013;DHT22;35901;48.694;9.476;2023-07-31T09:53:16;24.20;90.60
50013;DHT22;35901;48.694;9.476;2023-07-31T09:55:42;23.80;91.20
50013;DHT22;35901;48.694;9.476;2023-07-31T09:58:10;23.90;91.40
50013;DHT22;35901;48.694;9.476;2023-07-31T10:00:36;24.00;91.10
50013;DHT22;35901;48.694;9.476;2023-07-31T10:03:05;23.80;91.10
50013;DHT22;35901;48.694;9.476;2023-07-31T10:05:34;23.80;91.10
50013;DHT22;35901;48.694;9.476;2023-07-31T10:08:00;23.80;91.20
50013;DHT22;35901;48.694;9.476;2023-07-31T10:10:27;23.90;91.30
50013;DHT22;35901;48.694;9.476;2023-07-31T10:12:54;24.00;91.30
50013;DHT22;35901;48.694;9.476;2023-07-31T10:15:21;23.80;91.60
50013;DHT22;35901;48.694;9.476;2023-07-31T10:17:48;23.70;91.60
50013;DHT22;35901;48.694;9.476;2023-07-31T10:20:15;23.50;91.30
50013;DHT22;35901;48.694;9.476;2023-07-31T10:22:42;23.10;91.40
50013;DHT22;35901;48.694;9.476;2023-07-31T10:25:09;23.00;91.60
50013;DHT22;35901;48.694;9.476;2023-07-31T10:27:39;22.80;91.30
50013;DHT22;35901;48.694;9.476;2023-07-31T10:30:06;22.60;91.70
50013;DHT22;35901;48.694;9.476;2023-07-31T10:32:33;22.50;91.90
50013;DHT22;35901;48.694;9.476;2023-07-31T10:35:01;22.50;92.10
50013;DHT22;35901;48.694;9.476;2023-07-31T10:37:39;22.50;92.70
50013;DHT22;35901;48.694;9.476;2023-07-31T10:40:13;22.50;92.50
50013;DHT22;35901;48.694;9.476;2023-07-31T10:42:49;22.80;93.00
50013;DHT22;35901;48.694;9.476;2023-07-31T10:48:15;23.80;92.70
50013;DHT22;35901;48.694;9.476;2023-07-31T10:50:49;24.40;93.20
50013;DHT22;35901;48.694;9.476;2023-07-31T10:53:30;25.00;91.50
50013;DHT22;35901;48.694;9.476;2023-07-31T10:56:00;25.20;90.00
50013;DHT22;35901;48.694;9.476;2023-07-31T10:58:26;25.10;88.90
50013;DHT22;35901;48.694;9.476;2023-07-31T11:00:56;25.20;90.10
50013;DHT22;35901;48.694;9.476;2023-07-31T11:03:26;25.40;88.30
50013;DHT22;35901;48.694;9.476;2023-07-31T11:08:28;25.50;87.70
50013;DHT22;35901;48.694;9.476;2023-07-31T11:11:04;25.10;87.40
50013;DHT22;35901;48.694;9.476;2023-07-31T11:16:16;24.60;88.90
50013;DHT22;35901;48.694;9.476;2023-07-31T11:18:43;24.20;88.50
50013;DHT22;35901;48.694;9.476;2023-07-31T11:21:14;23.90;89.40
50013;DHT22;35901;48.694;9.476;2023-07-31T11:23:40;23.80;89.60
50013;DHT22;35901;48.694;9.476;2023-07-31T11:26:06;23.70;90.50
50013;DHT22;35901;48.694;9.476;2023-07-31T11:28:34;23.70;90.20
50013;DHT22;35901;48.694;9.476;2023-07-31T11:31:01;23.80;90.00
50013;DHT22;35901;48.694;9.476;2023-07-31T11:33:28;23.90;90.40
50013;DHT22;35901;48.694;9.476;2023-07-31T11:35:54;24.20;90.90
50013;DHT22;35901;48.694;9.476;2023-07-31T11:38:27;24.50;90.40
50013;DHT22;35901;48.694;9.476;2023-07-31T11:40:54;24.70;90.60
50013;DHT22;35901;48.694;9.476;2023-07-31T11:43:21;25.00;90.00
50013;DHT22;35901;48.694;9.476;2023-07-31T11:45:48;25.30;89.10
50013;DHT22;35901;48.694;9.476;2023-07-31T11:48:22;25.20;89.60
50013;DHT22;35901;48.694;9.476;2023-07-31T11:50:53;24.90;89.30
50013;DHT22;35901;48.694;9.476;2023-07-31T11:55:55;24.80;88.80
50013;DHT22;35901;48.694;9.476;2023-07-31T11:58:23;24.70;89.70
50013;DHT22;35901;48.694;9.476;2023-07-31T12:00:49;24.50;87.90
50013;DHT22;35901;48.694;9.476;2023-07-31T12:03:15;24.20;87.90
50013;DHT22;35901;48.694;9.476;2023-07-31T12:05:41;24.00;88.10
50013;DHT22;35901;48.694;9.476;2023-07-31T12:08:11;23.80;88.40
50013;DHT22;35901;48.694;9.476;2023-07-31T12:10:38;23.60;89.40
50013;DHT22;35901;48.694;9.476;2023-07-31T12:13:08;23.30;89.70
50013;DHT22;35901;48.694;9.476;2023-07-31T12:15:43;23.20;90.70
50013;DHT22;35901;48.694;9.476;2023-07-31T12:18:22;23.10;90.80
50013;DHT22;35901;48.694;9.476;2023-07-31T12:20:49;23.10;90.90
50013;DHT22;35901;48.694;9.476;2023-07-31T12:23:33;23.10;90.70
50013;DHT22;35901;48.694;9.476;2023-07-31T12:31:02;23.00;91.20
50013;DHT22;35901;48.694;9.476;2023-07-31T12:33:32;23.00;91.60
50013;DHT22;35901;48.694;9.476;2023-07-31T12:36:00;22.90;91.70
50013;DHT22;35901;48.694;9.476;2023-07-31T12:38:26;22.70;91.60
50013;DHT22;35901;48.694;9.476;2023-07-31T12:40:51;22.70;92.10
50013;DHT22;35901;48.694;9.476;2023-07-31T12:43:17;22.80;92.10
50013;DHT22;35901;48.694;9.476;2023-07-31T12:45:44;22.80;92.20
50013;DHT22;35901;48.694;9.476;2023-07-31T12:48:10;22.90;92.40
50013;DHT22;35901;48.694;9.476;2023-07-31T12:50:36;22.90;92.20
50013;DHT22;35901;48.694;9.476;2023-07-31T12:53:02;23.00;91.80
50013;DHT22;35901;48.694;9.476;2023-07-31T12:55:32;23.10;92.10
50013;DHT22;35901;48.694;9.476;2023-07-31T12:58:00;23.10;92.10
50013;DHT22;35901;48.694;9.476;2023-07-31T13:00:26;23.10;92.20
50013;DHT22;35901;48.694;9.476;2023-07-31T13:02:52;23.00;92.00
50013;DHT22;35901;48.694;9.476;2023-07-31T13:05:18;22.90;92.00
50013;DHT22;35901;48.694;9.476;2023-07-31T13:07:45;22.70;92.00
50013;DHT22;35901;48.694;9.476;2023-07-31T13:10:12;22.70;91.80
50013;DHT22;35901;48.694;9.476;2023-07-31T13:12:38;22.50;91.70
50013;DHT22;35901;48.694;9.476;2023-07-31T13:15:05;22.40;92.10
50013;DHT22;35901;48.694;9.476;2023-07-31T13:17:31;22.40;92.20
50013;DHT22;35901;48.694;9.476;2023-07-31T13:19:58;22.50;92.30
50013;DHT22;35901;48.694;9.476;2023-07-31T13:22:23;22.50;92.50
50013;DHT22;35901;48.694;9.476;2023-07-31T13:24:49;22.60;92.60
50013;DHT22;35901;48.694;9.476;2023-07-31T13:27:15;22.70;92.70
50013;DHT22;35901;48.694;9.476;2023-07-31T13:29:46;22.80;92.60
50013;DHT22;35901;48.694;9.476;2023-07-31T13:32:12;22.90;92.70
50013;DHT22;35901;48.694;9.476;2023-07-31T13:34:37;22.90;92.30
50013;DHT22;35901;48.694;9.476;2023-07-31T13:37:03;22.70;92.90
50013;DHT22;35901;48.694;9.476;2023-07-31T13:39:31;22.70;92.70
50013;DHT22;35901;48.694;9.476;2023-07-31T13:41:57;22.70;93.00
50013;DHT22;35901;48.694;9.476;2023-07-31T13:44:22;22.60;93.20
50013;DHT22;35901;48.694;9.476;2023-07-31T13:46:48;22.60;93.80
50013;DHT22;35901;48.694;9.476;2023-07-31T13:49:14;22.60;92.60
50013;DHT22;35901;48.694;9.476;2023-07-31T13:51:39;22.60;92.90
50013;DHT22;35901;48.694;9.476;2023-07-31T13:54:05;22.70;93.10
50013;DHT22;35901;48.694;9.476;2023-07-31T13:56:32;22.80;93.30
50013;DHT22;35901;48.694;9.476;2023-07-31T13:58:58;22.80;93.10
50013;DHT22;35901;48.694;9.476;2023-07-31T14:01:23;22.80;93.10
50013;DHT22;35901;48.694;9.476;2023-07-31T14:03:49;22.60;93.10
50013;DHT22;35901;48.694;9.476;2023-07-31T14:06:15;22.50;93.20
50013;DHT22;35901;48.694;9.476;2023-07-31T14:08:41;22.30;93.40
50013;DHT22;35901;48.694;9.476;2023-07-31T14:11:06;22.20;93.70
50013;DHT22;35901;48.694;9.476;2023-07-31T14:13:32;22.00;93.70
50013;DHT22;35901;48.694;9.476;2023-07-31T14:15:58;21.90;93.80
50013;DHT22;35901;48.694;9.476;2023-07-31T14:18:23;21.90;94.20
50013;DHT22;35901;48.694;9.476;2023-07-31T14:20:49;21.90;94.30
50013;DHT22;35901;48.694;9.476;2023-07-31T14:23:14;22.00;94.40
50013;DHT22;35901;48.694;9.476;2023-07-31T14:25:41;22.10;94.20
50013;DHT22;35901;48.694;9.476;2023-07-31T14:28:07;22.20;94.00
50013;DHT22;35901;48.694;9.476;2023-07-31T14:30:32;22.20;94.10
50013;DHT22;35901;48.694;9.476;2023-07-31T14:32:58;22.20;93.90
50013;DHT22;35901;48.694;9.476;2023-07-31T14:35:26;22.20;94.00
50013;DHT22;35901;48.694;9.476;2023-07-31T14:37:51;22.20;94.20
50013;DHT22;35901;48.694;9.476;2023-07-31T14:40:17;22.20;94.30
50013;DHT22;35901;48.694;9.476;2023-07-31T14:42:42;22.30;94.50
50013;DHT22;35901;48.694;9.476;2023-07-31T14:45:09;22.30;94.50
50013;DHT22;35901;48.694;9.476;2023-07-31T14:47:36;22.30;94.60
50013;DHT22;35901;48.694;9.476;2023-07-31T14:50:02;22.30;94.50
50013;DHT22;35901;48.694;9.476;2023-07-31T14:52:28;22.40;94.60
50013;DHT22;35901;48.694;9.476;2023-07-31T14:54:54;22.40;94.60
50013;DHT22;35901;48.694;9.476;2023-07-31T14:57:20;22.30;94.60
50013;DHT22;35901;48.694;9.476;2023-07-31T14:59:46;22.30;94.80
50013;DHT22;35901;48.694;9.476;2023-07-31T15:02:11;22.30;94.80
50013;DHT22;35901;48.694;9.476;2023-07-31T15:04:37;22.30;94.80
50013;DHT22;35901;48.694;9.476;2023-07-31T15:07:03;22.30;94.30
50013;DHT22;35901;48.694;9.476;2023-07-31T15:09:29;22.30;94.10
50013;DHT22;35901;48.694;9.476;2023-07-31T15:11:56;22.30;93.60
50013;DHT22;35901;48.694;9.476;2023-07-31T15:14:22;22.30;93.10
50013;DHT22;35901;48.694;9.476;2023-07-31T15:16:48;22.20;92.80
50013;DHT22;35901;48.694;9.476;2023-07-31T15:19:14;22.10;92.90
50013;DHT22;35901;48.694;9.476;2023-07-31T15:21:40;22.10;92.70
50013;DHT22;35901;48.694;9.476;2023-07-31T15:24:06;22.10;92.60
50013;DHT22;35901;48.694;9.476;2023-07-31T15:26:31;22.10;92.50
50013;DHT22;35901;48.694;9.476;2023-07-31T15:29:02;22.00;92.40
50013;DHT22;35901;48.694;9.476;2023-07-31T15:31:31;22.00;92.50
50013;DHT22;35901;48.694;9.476;2023-07-31T15:33:57;22.10;92.60
50013;DHT22;35901;48.694;9.476;2023-07-31T15:36:22;22.10;92.60
50013;DHT22;35901;48.694;9.476;2023-07-31T15:38:48;22.20;92.30
50013;DHT22;35901;48.694;9.476;2023-07-31T15:41:17;22.30;92.30
50013;DHT22;35901;48.694;9.476;2023-07-31T15:43:43;22.30;92.20
50013;DHT22;35901;48.694;9.476;2023-07-31T15:46:08;22.30;92.00
50013;DHT22;35901;48.694;9.476;2023-07-31T15:48:34;22.40;92.00
50013;DHT22;35901;48.694;9.476;2023-07-31T15:51:00;22.40;92.00